Time;durP1;ratioP1;P1;durP2;ratioP2;P2;SDS_P1;SDS_P2;PMS_P1;PMS_P2;Temp;Humidity;BMP_temperature;BMP_pressure;BME280_temperature;BME280_humidity;BME280_pressure;Samples;Min_cycle;Max_cycle;Signal;HPM_P1;HPM_P2
2020/12/09 00:00:55;;;;;;;5.60;3.72;;;20.90;42.90;;;;;;5033012;28;20025;-43
2020/12/09 00:03:21;;;;;;;5.30;3.50;;;20.90;42.90;;;;;;5032243;28;20033;-43
2020/12/09 00:05:46;;;;;;;4.47;3.10;;;20.90;42.90;;;;;;5033309;28;20100;-46
2020/12/09 00:08:12;;;;;;;4.68;3.50;;;20.80;42.90;;;;;;5032005;28;20037;-47
2020/12/09 00:10:38;;;;;;;5.07;3.53;;;20.80;42.80;;;;;;5033350;28;20034;-44
2020/12/09 00:13:04;;;;;;;5.13;3.90;;;20.80;42.80;;;;;;5033630;28;20079;-44
2020/12/09 00:15:30;;;;;;;5.28;3.33;;;20.80;42.80;;;;;;5032155;28;20072;-44
2020/12/09 00:17:56;;;;;;;6.93;3.30;;;20.80;42.80;;;;;;5032756;28;20363;-44
2020/12/09 00:20:22;;;;;;;4.90;3.13;;;20.80;42.80;;;;;;5031793;28;20041;-43
2020/12/09 00:22:47;;;;;;;4.45;2.97;;;20.80;42.80;;;;;;5032127;28;20018;-46
2020/12/09 00:25:13;;;;;;;5.05;3.20;;;20.80;42.70;;;;;;5030968;28;20069;-44
2020/12/09 00:27:39;;;;;;;4.82;3.38;;;20.80;42.80;;;;;;5032004;28;20061;-45
2020/12/09 00:30:06;;;;;;;4.60;3.60;;;20.70;42.70;;;;;;5031927;28;20025;-44
2020/12/09 00:32:35;;;;;;;6.20;3.40;;;20.70;42.70;;;;;;5031719;28;20080;-46
2020/12/09 00:35:01;;;;;;;3.70;3.30;;;20.80;42.70;;;;;;5031320;28;20029;-44
2020/12/09 00:37:27;;;;;;;4.63;3.40;;;20.70;42.60;;;;;;5030947;28;20095;-44
2020/12/09 00:39:52;;;;;;;5.45;3.35;;;20.80;42.60;;;;;;5028865;28;20029;-44
2020/12/09 00:42:18;;;;;;;5.18;3.53;;;20.70;42.60;;;;;;5031256;28;20029;-44
2020/12/09 00:44:44;;;;;;;4.75;3.45;;;20.70;42.60;;;;;;5031873;28;20030;-44
2020/12/09 00:47:09;;;;;;;6.35;3.60;;;20.70;42.70;;;;;;5028793;28;20029;-57
2020/12/09 00:52:19;;;;;;;3.85;3.20;;;20.70;42.70;;;;;;5029308;28;20040;-43
2020/12/09 00:54:45;;;;;;;4.63;3.33;;;20.70;42.60;;;;;;5030533;28;20029;-44
2020/12/09 00:57:11;;;;;;;4.40;3.28;;;20.70;42.50;;;;;;5030989;28;20037;-47
2020/12/09 00:59:36;;;;;;;4.20;3.30;;;20.70;42.60;;;;;;5031555;28;20030;-42
2020/12/09 01:02:02;;;;;;;6.03;3.28;;;20.70;42.60;;;;;;5031990;28;20033;-48
2020/12/09 01:04:28;;;;;;;4.22;2.85;;;20.70;42.60;;;;;;5030950;28;20028;-42
2020/12/09 01:06:53;;;;;;;5.38;3.83;;;20.70;42.60;;;;;;5030621;28;20034;-45
2020/12/09 01:09:19;;;;;;;4.63;3.70;;;20.70;42.60;;;;;;5030547;28;20036;-44
2020/12/09 01:11:45;;;;;;;3.90;2.92;;;20.70;42.50;;;;;;5031095;28;20057;-48
2020/12/09 01:14:10;;;;;;;4.38;3.42;;;20.70;42.60;;;;;;5030520;28;20084;-54
2020/12/09 01:16:36;;;;;;;5.40;3.00;;;20.70;42.50;;;;;;5032890;28;20087;-44
2020/12/09 01:19:02;;;;;;;4.00;3.35;;;20.70;42.50;;;;;;5032336;28;20032;-43
2020/12/09 01:21:29;;;;;;;4.53;3.22;;;20.70;42.50;;;;;;5031423;28;20513;-46
2020/12/09 01:23:55;;;;;;;4.78;2.80;;;20.70;42.40;;;;;;5032592;28;20021;-45
2020/12/09 01:26:21;;;;;;;4.05;3.00;;;20.70;42.40;;;;;;5031618;28;20548;-44
2020/12/09 01:28:46;;;;;;;4.82;3.55;;;20.60;42.40;;;;;;5031881;28;20072;-43
2020/12/09 01:31:12;;;;;;;4.88;3.47;;;20.70;42.40;;;;;;5031643;28;20376;-43
2020/12/09 01:33:38;;;;;;;3.90;3.10;;;20.70;42.40;;;;;;5032561;28;20057;-46
2020/12/09 01:36:03;;;;;;;4.93;3.47;;;20.70;42.50;;;;;;5031629;28;20418;-44
2020/12/09 01:38:29;;;;;;;3.90;2.80;;;20.60;42.30;;;;;;5031194;28;20026;-43
2020/12/09 01:40:55;;;;;;;4.57;3.05;;;20.70;42.30;;;;;;5031510;28;20060;-47
2020/12/09 01:43:21;;;;;;;4.28;3.03;;;20.70;42.30;;;;;;5031397;28;20040;-44
2020/12/09 01:45:47;;;;;;;5.63;3.30;;;20.70;42.30;;;;;;5032333;28;20029;-44
2020/12/09 01:48:16;;;;;;;3.45;3.15;;;20.60;42.30;;;;;;5030962;28;20118;-44
2020/12/09 01:50:42;;;;;;;4.38;3.30;;;20.60;42.20;;;;;;5031893;28;20375;-44
2020/12/09 01:53:07;;;;;;;3.92;2.90;;;20.70;42.30;;;;;;5032125;28;20022;-55
2020/12/09 01:55:33;;;;;;;5.70;2.97;;;20.60;42.20;;;;;;5031218;28;20040;-43
2020/12/09 01:57:59;;;;;;;5.07;3.20;;;20.70;42.20;;;;;;5031936;28;20495;-43
2020/12/09 02:00:24;;;;;;;4.38;2.72;;;20.60;42.20;;;;;;5030982;28;20034;-49
2020/12/09 02:02:50;;;;;;;5.03;3.42;;;20.60;42.20;;;;;;5023156;28;20025;-43
2020/12/09 02:05:16;;;;;;;4.15;3.33;;;20.60;42.10;;;;;;5030892;28;20112;-43
2020/12/09 02:07:42;;;;;;;3.50;3.00;;;20.60;42.10;;;;;;5031066;28;20376;-44
2020/12/09 02:10:07;;;;;;;4.20;3.17;;;20.70;42.10;;;;;;5030341;28;20034;-53
2020/12/09 02:12:37;;;;;;;4.18;3.17;;;20.60;42.10;;;;;;5031045;28;20033;-43
2020/12/09 02:15:05;;;;;;;4.05;3.25;;;20.70;42.10;;;;;;5031475;28;20037;-43
2020/12/09 02:17:31;;;;;;;4.75;3.28;;;20.70;42.10;;;;;;5030896;28;20114;-43
2020/12/09 02:19:57;;;;;;;4.38;3.22;;;20.70;42.00;;;;;;5031544;28;20025;-44
2020/12/09 02:22:22;;;;;;;4.20;2.90;;;20.70;42.00;;;;;;5030646;28;20391;-43
2020/12/09 02:24:48;;;;;;;6.03;3.70;;;20.70;42.00;;;;;;5031196;28;20068;-43
2020/12/09 02:27:14;;;;;;;3.45;2.70;;;20.70;42.00;;;;;;5030151;28;20068;-44
2020/12/09 02:29:40;;;;;;;4.88;3.20;;;20.70;42.00;;;;;;5031614;28;20080;-43
2020/12/09 02:32:06;;;;;;;4.50;3.03;;;20.70;42.00;;;;;;5031723;28;20478;-44
2020/12/09 02:34:31;;;;;;;4.15;3.20;;;20.70;41.90;;;;;;5029994;28;20032;-43
2020/12/09 02:36:57;;;;;;;6.90;3.80;;;20.70;41.90;;;;;;5031149;28;20066;-47
2020/12/09 02:39:49;;;;;;;5.28;3.13;;;20.70;41.90;;;;;;5030686;28;20021;-43
2020/12/09 02:42:14;;;;;;;4.25;2.90;;;20.70;41.90;;;;;;5028310;28;20045;-44
2020/12/09 02:44:40;;;;;;;3.00;2.63;;;20.70;41.90;;;;;;5046629;28;20124;-44
2020/12/09 02:47:06;;;;;;;4.60;3.30;;;20.70;41.90;;;;;;5031327;28;20030;-44
2020/12/09 02:49:31;;;;;;;3.85;3.45;;;20.70;41.90;;;;;;5030136;28;20607;-47
2020/12/09 02:51:57;;;;;;;3.60;2.63;;;20.70;41.90;;;;;;5031048;28;20052;-43
2020/12/09 02:54:23;;;;;;;4.70;3.08;;;20.70;41.80;;;;;;5030112;28;20037;-44
2020/12/09 02:56:48;;;;;;;4.07;3.22;;;20.70;41.80;;;;;;5031407;28;20072;-43
2020/12/09 02:59:14;;;;;;;5.32;3.70;;;20.70;42.50;;;;;;5033952;28;20466;-45
2020/12/09 03:01:40;;;;;;;4.05;3.30;;;20.70;41.90;;;;;;5034751;28;20029;-44
2020/12/09 03:04:06;;;;;;;3.83;3.17;;;20.70;41.80;;;;;;5035471;28;20107;-43
2020/12/09 03:06:31;;;;;;;3.55;3.00;;;20.70;41.80;;;;;;5033535;28;20569;-44
2020/12/09 03:08:57;;;;;;;3.88;3.30;;;20.70;41.80;;;;;;5033499;28;20026;-44
2020/12/09 03:11:23;;;;;;;4.18;3.63;;;20.70;41.80;;;;;;5034072;28;20036;-44
2020/12/09 03:13:49;;;;;;;3.45;3.15;;;20.70;42.40;;;;;;5034564;28;20355;-46
2020/12/09 03:16:14;;;;;;;4.03;2.90;;;20.70;41.70;;;;;;5033643;28;20104;-50
2020/12/09 03:18:40;;;;;;;4.82;3.42;;;20.70;41.80;;;;;;5034394;28;20029;-44
2020/12/09 03:21:06;;;;;;;3.78;2.92;;;20.70;41.70;;;;;;5034330;28;20029;-44
2020/12/09 03:23:36;;;;;;;5.30;3.47;;;20.70;41.70;;;;;;5032586;28;20595;-43
2020/12/09 03:26:02;;;;;;;3.30;2.97;;;20.70;41.70;;;;;;5034396;28;20090;-44
2020/12/09 03:28:28;;;;;;;4.55;3.10;;;20.80;41.80;;;;;;5032547;28;20378;-43
2020/12/09 03:30:54;;;;;;;5.00;3.65;;;20.70;41.70;;;;;;5034270;28;20026;-50
2020/12/09 03:33:19;;;;;;;4.03;3.03;;;20.70;41.70;;;;;;5033446;28;20060;-44
2020/12/09 03:35:45;;;;;;;3.80;3.08;;;20.70;41.70;;;;;;5034302;28;20041;-44
2020/12/09 03:38:11;;;;;;;3.47;3.03;;;20.70;42.30;;;;;;5034514;28;20022;-55
2020/12/09 03:40:36;;;;;;;5.43;3.70;;;20.70;41.70;;;;;;5032481;28;20087;-46
2020/12/09 03:43:02;;;;;;;3.63;3.22;;;20.80;41.80;;;;;;5034078;28;20144;-45
2020/12/09 03:45:28;;;;;;;4.88;3.20;;;20.70;41.70;;;;;;5033291;28;20064;-44
2020/12/09 03:47:53;;;;;;;4.60;3.38;;;20.70;41.70;;;;;;5034124;28;20033;-43
2020/12/09 03:50:19;;;;;;;4.13;3.20;;;20.80;41.70;;;;;;5033339;28;20108;-44
2020/12/09 03:52:45;;;;;;;4.15;3.10;;;20.70;42.30;;;;;;5033885;28;20025;-43
2020/12/09 03:55:10;;;;;;;4.07;3.20;;;20.70;41.70;;;;;;5034073;28;20029;-44
2020/12/09 03:57:36;;;;;;;3.90;3.33;;;20.70;41.70;;;;;;5033221;28;20037;-43
2020/12/09 04:00:03;;;;;;;4.32;3.35;;;20.80;41.70;;;;;;5033267;28;20021;-43
2020/12/09 04:02:29;;;;;;;4.55;3.28;;;20.70;41.60;;;;;;5033247;28;20112;-44
2020/12/09 04:04:55;;;;;;;4.85;3.47;;;20.80;41.70;;;;;;5034398;28;20156;-44
2020/12/09 04:07:20;;;;;;;5.43;3.35;;;20.70;41.60;;;;;;5032500;28;20049;-44
2020/12/09 04:09:46;;;;;;;3.60;3.22;;;20.70;41.70;;;;;;5032950;28;20028;-44
2020/12/09 04:12:12;;;;;;;4.13;2.92;;;20.80;41.60;;;;;;5033704;28;20029;-50
2020/12/09 04:14:37;;;;;;;5.07;3.60;;;20.80;41.70;;;;;;5032967;28;20383;-45
2020/12/09 04:17:03;;;;;;;3.63;3.08;;;20.80;41.70;;;;;;5033333;28;20500;-44
2020/12/09 04:19:29;;;;;;;3.78;3.30;;;20.80;41.70;;;;;;5032748;28;20029;-44
2020/12/09 04:21:54;;;;;;;4.57;3.22;;;20.70;41.60;;;;;;5049230;28;20049;-46
2020/12/09 04:24:20;;;;;;;4.82;3.40;;;20.80;41.60;;;;;;5032391;28;20018;-43
2020/12/09 04:26:46;;;;;;;4.35;3.53;;;20.80;41.60;;;;;;5032790;28;20037;-46
2020/12/09 04:29:11;;;;;;;4.13;3.55;;;20.80;41.60;;;;;;5033517;28;20029;-49
2020/12/09 04:31:37;;;;;;;4.13;3.40;;;20.80;41.60;;;;;;5032146;28;20041;-43
2020/12/09 04:34:03;;;;;;;4.32;3.42;;;20.80;41.60;;;;;;5033287;28;20105;-44
2020/12/09 04:36:29;;;;;;;5.70;3.50;;;20.80;41.60;;;;;;5031223;28;20041;-43
2020/12/09 04:38:57;;;;;;;5.93;3.95;;;20.80;41.60;;;;;;5032955;28;20026;-44
2020/12/09 04:41:22;;;;;;;3.67;2.85;;;20.80;41.60;;;;;;5032518;28;20038;-42
2020/12/09 04:43:48;;;;;;;3.88;3.45;;;20.80;41.60;;;;;;5032809;28;20439;-44
2020/12/09 04:46:14;;;;;;;3.35;2.97;;;20.80;41.60;;;;;;5032577;28;20039;-55
2020/12/09 04:48:41;;;;;;;3.90;3.25;;;20.80;41.60;;;;;;5032128;28;20026;-47
2020/12/09 04:51:39;;;;;;;4.03;3.10;;;20.80;41.60;;;;;;5032924;28;20450;-43
2020/12/09 04:54:16;;;;;;;3.97;3.22;;;20.80;41.60;;;;;;5033184;28;20033;-45
2020/12/09 04:56:55;;;;;;;5.70;3.22;;;20.80;41.60;;;;;;5024101;28;20087;-43
2020/12/09 04:59:25;;;;;;;4.00;3.17;;;20.80;41.60;;;;;;5031919;28;20030;-44
2020/12/09 05:02:05;;;;;;;5.18;4.05;;;20.80;41.60;;;;;;5023682;28;20021;-44
2020/12/09 05:04:33;;;;;;;4.60;3.67;;;20.80;41.70;;;;;;5031981;28;20037;-43
2020/12/09 05:07:05;;;;;;;5.13;3.00;;;20.80;41.60;;;;;;5031779;28;20045;-44
2020/12/09 05:09:33;;;;;;;;;;;20.80;41.70;;;;;;5032667;28;20034;-44
2020/12/09 05:12:04;;;;;;;3.40;2.92;;;20.80;41.70;;;;;;5032223;28;19909;-43
2020/12/09 05:14:33;;;;;;;5.20;3.03;;;20.80;41.60;;;;;;5031841;28;20556;-43
2020/12/09 05:16:59;;;;;;;3.97;3.22;;;20.80;41.60;;;;;;5032337;28;20083;-44
2020/12/09 05:19:25;;;;;;;3.88;3.17;;;20.80;41.60;;;;;;5031883;28;20029;-43
2020/12/09 05:21:52;;;;;;;3.47;3.03;;;20.80;41.70;;;;;;5031933;28;20033;-43
2020/12/09 05:24:20;;;;;;;3.70;3.30;;;20.80;41.60;;;;;;5031678;28;20036;-55
2020/12/09 05:26:47;;;;;;;4.47;3.53;;;20.80;41.60;;;;;;5032527;28;20471;-44
2020/12/09 05:29:15;;;;;;;5.72;3.60;;;20.80;41.60;;;;;;5032294;28;20029;-44
2020/12/09 05:31:58;;;;;;;4.05;3.20;;;20.80;41.70;;;;;;5030450;28;20033;-43
2020/12/09 05:34:31;;;;;;;3.47;3.03;;;20.80;41.60;;;;;;5031400;28;20037;-45
2020/12/09 05:37:05;;;;;;;5.18;3.08;;;20.80;41.60;;;;;;5032250;28;20064;-43
2020/12/09 05:39:32;;;;;;;3.40;3.00;;;20.80;41.70;;;;;;5031241;28;20479;-43
2020/12/09 05:42:13;;;;;;;3.88;3.13;;;20.80;41.60;;;;;;5031465;28;20419;-43
2020/12/09 05:44:43;;;;;;;4.22;3.83;;;20.80;41.60;;;;;;5031450;28;20045;-44
2020/12/09 05:47:10;;;;;;;3.83;3.15;;;20.80;41.70;;;;;;5024031;28;20541;-44
2020/12/09 05:49:39;;;;;;;3.92;3.10;;;20.80;41.60;;;;;;5031386;28;20068;-46
2020/12/09 05:52:16;;;;;;;3.20;2.88;;;20.80;41.60;;;;;;5031779;28;20026;-43
2020/12/09 05:54:46;;;;;;;6.10;3.45;;;20.90;41.70;;;;;;5031878;28;20034;-44
2020/12/09 05:57:15;;;;;;;3.65;3.15;;;20.90;41.70;;;;;;5031514;28;20414;-43
2020/12/09 05:59:44;;;;;;;3.33;3.00;;;20.80;41.60;;;;;;5031178;28;20025;-43
2020/12/09 06:02:21;;;;;;;4.57;3.40;;;20.80;41.60;;;;;;5030928;28;20478;-43
2020/12/09 06:04:57;;;;;;;3.58;3.28;;;20.80;41.60;;;;;;5031938;28;20025;-44
2020/12/09 06:07:25;;;;;;;3.63;2.83;;;20.90;41.60;;;;;;5030123;28;20076;-45
2020/12/09 06:10:16;;;;;;;3.67;3.10;;;20.80;41.60;;;;;;5031679;28;20034;-46
2020/12/09 06:12:50;;;;;;;4.10;3.00;;;20.80;41.60;;;;;;5029727;28;20487;-45
2020/12/09 06:15:16;;;;;;;3.35;2.97;;;20.90;41.60;;;;;;5031335;28;20056;-44
2020/12/09 06:17:42;;;;;;;4.35;3.20;;;20.80;41.70;;;;;;5030678;28;20095;-45
2020/12/09 06:20:08;;;;;;;3.10;2.80;;;20.80;41.60;;;;;;5031605;28;20025;-44
2020/12/09 06:22:34;;;;;;;3.50;2.95;;;20.80;41.60;;;;;;5030531;28;20040;-45
2020/12/09 06:25:04;;;;;;;4.75;3.10;;;20.80;41.60;;;;;;5031116;28;20049;-45
2020/12/09 06:27:32;;;;;;;3.13;2.83;;;20.80;41.60;;;;;;5030400;28;20080;-45
2020/12/09 06:29:58;;;;;;;3.72;3.00;;;20.80;41.50;;;;;;5031043;28;20056;-45
2020/12/09 06:32:23;;;;;;;2.67;2.40;;;20.80;41.60;;;;;;5028812;28;20504;-43
2020/12/09 06:35:09;;;;;;;2.80;2.55;;;20.80;41.60;;;;;;5031495;28;20336;-45
2020/12/09 06:37:35;;;;;;;3.85;2.92;;;20.80;41.60;;;;;;5030578;28;20481;-44
2020/12/09 06:40:09;;;;;;;3.63;2.72;;;20.80;41.60;;;;;;5031534;28;20052;-44
2020/12/09 06:42:35;;;;;;;3.20;2.72;;;20.80;41.60;;;;;;5028948;28;20036;-44
2020/12/09 06:45:02;;;;;;;4.88;2.95;;;20.80;41.60;;;;;;5031643;28;20116;-43
2020/12/09 06:47:28;;;;;;;3.60;2.80;;;20.80;41.60;;;;;;5030116;28;20034;-45
2020/12/09 06:49:55;;;;;;;4.75;2.92;;;20.80;41.60;;;;;;5031297;28;20108;-43
2020/12/09 06:52:34;;;;;;;5.75;2.70;;;20.90;41.80;;;;;;5030889;28;20152;-57
2020/12/09 06:55:03;;;;;;;4.18;2.90;;;20.90;41.80;;;;;;5031053;28;20116;-43
2020/12/09 06:57:35;;;;;;;3.70;3.03;;;20.90;41.90;;;;;;5030515;28;20033;-46
2020/12/09 07:00:10;;;;;;;3.67;2.92;;;20.90;41.90;;;;;;5023802;28;20518;-45
2020/12/09 07:02:36;;;;;;;7.18;2.95;;;20.90;41.90;;;;;;5029666;28;20033;-43
2020/12/09 07:05:05;;;;;;;5.97;2.65;;;20.90;42.10;;;;;;5030525;28;20441;-43
2020/12/09 07:07:35;;;;;;;7.65;3.13;;;21.00;42.10;;;;;;5029900;28;20026;-43
2020/12/09 07:10:25;;;;;;;6.60;3.13;;;21.00;42.20;;;;;;5030717;28;20441;-44
2020/12/09 07:13:06;;;;;;;7.57;2.97;;;21.00;42.40;;;;;;5018973;28;20033;-43
2020/12/09 07:15:31;;;;;;;14.73;3.80;;;21.00;42.60;;;;;;5029029;28;20029;-42
2020/12/09 07:17:57;;;;;;;10.95;3.92;;;21.00;43.30;;;;;;5030823;28;20434;-43
2020/12/09 07:20:23;;;;;;;11.05;3.25;;;21.00;43.10;;;;;;5030136;28;20426;-57
2020/12/09 07:22:49;;;;;;;10.85;3.63;;;21.00;43.00;;;;;;5029247;28;21538;-42
2020/12/09 07:25:15;;;;;;;17.05;3.53;;;21.00;43.20;;;;;;5030365;28;20140;-44
2020/12/09 07:27:42;;;;;;;14.98;4.05;;;21.00;43.30;;;;;;5027859;28;20133;-45
2020/12/09 07:30:10;;;;;;;9.45;3.38;;;21.00;43.70;;;;;;5031471;28;20071;-43
2020/12/09 07:32:37;;;;;;;13.50;3.60;;;21.00;43.70;;;;;;5030760;28;20025;-43
2020/12/09 07:35:22;;;;;;;9.00;3.10;;;21.00;43.80;;;;;;5028861;28;20033;-43
2020/12/09 07:37:52;;;;;;;11.18;3.83;;;21.00;44.00;;;;;;5030291;28;20037;-41
2020/12/09 07:40:25;;;;;;;12.75;3.47;;;21.10;43.80;;;;;;5030808;28;20096;-43
2020/12/09 07:43:01;;;;;;;13.95;4.35;;;21.10;43.70;;;;;;5030728;28;20025;-44
2020/12/09 07:45:27;;;;;;;7.68;2.92;;;21.10;43.60;;;;;;5031866;28;20036;-42
2020/12/09 07:48:00;;;;;;;14.05;3.85;;;21.10;43.60;;;;;;5034093;28;20029;-44
2020/12/09 07:50:26;;;;;;;12.25;3.33;;;21.10;43.50;;;;;;5032867;28;20113;-43
2020/12/09 07:52:52;;;;;;;6.85;3.47;;;21.10;43.50;;;;;;5034366;28;20160;-41
2020/12/09 07:55:18;;;;;;;7.63;3.22;;;21.10;43.50;;;;;;5034297;28;20491;-43
2020/12/09 07:57:44;;;;;;;9.25;3.35;;;21.20;43.40;;;;;;5032800;28;20029;-40
2020/12/09 08:00:16;;;;;;;6.75;3.78;;;21.20;43.30;;;;;;5033808;28;20021;-42
2020/12/09 08:02:44;;;;;;;6.35;2.80;;;21.20;43.30;;;;;;5032765;28;20033;-41
2020/12/09 08:05:24;;;;;;;6.75;3.13;;;21.20;43.20;;;;;;5033307;28;20017;-45
2020/12/09 08:07:54;;;;;;;8.70;3.28;;;21.20;43.20;;;;;;5033498;28;20037;-43
2020/12/09 08:10:22;;;;;;;5.35;3.53;;;21.20;43.00;;;;;;5026495;28;20040;-57
2020/12/09 08:12:48;;;;;;;5.45;3.17;;;21.20;43.00;;;;;;5033516;28;20044;-45
2020/12/09 08:15:14;;;;;;;7.80;3.00;;;21.30;42.90;;;;;;5033399;28;20026;-42
2020/12/09 08:17:46;;;;;;;8.18;2.70;;;21.30;42.90;;;;;;5032863;28;20396;-42
2020/12/09 08:20:14;;;;;;;;;;;21.30;42.90;;;;;;5034032;28;20023;-51
2020/12/09 08:22:58;;;;;;;5.25;3.05;;;21.30;42.90;;;;;;5032896;28;19913;-42
2020/12/09 08:25:27;;;;;;;4.78;2.95;;;21.30;42.80;;;;;;5029246;28;20391;-59
2020/12/09 08:27:53;;;;;;;6.43;3.28;;;21.30;42.90;;;;;;5024972;28;20029;-42
2020/12/09 08:30:26;;;;;;;8.10;3.28;;;21.30;42.90;;;;;;5033288;28;20079;-44
2020/12/09 08:32:58;;;;;;;7.22;3.63;;;21.30;42.80;;;;;;5033023;28;20033;-41
2020/12/09 08:35:25;;;;;;;5.03;2.83;;;21.30;42.70;;;;;;5031626;28;20092;-60
2020/12/09 08:37:51;;;;;;;7.88;3.10;;;21.30;42.60;;;;;;5033482;28;20038;-42
2020/12/09 08:40:17;;;;;;;6.10;3.33;;;21.40;42.70;;;;;;5031507;28;20029;-45
2020/12/09 08:42:53;;;;;;;10.05;3.45;;;21.40;42.70;;;;;;5027058;28;20596;-49
2020/12/09 08:45:19;;;;;;;6.07;3.03;;;21.30;42.70;;;;;;5024262;28;20056;-48
2020/12/09 08:47:45;;;;;;;4.53;2.72;;;21.30;42.70;;;;;;5029680;28;20113;-44
2020/12/09 08:50:10;;;;;;;4.72;2.88;;;21.20;42.70;;;;;;5033053;28;20033;-54
2020/12/09 08:52:36;;;;;;;16.05;3.90;;;21.20;42.80;;;;;;5031309;28;20457;-43
2020/12/09 08:55:03;;;;;;;7.45;3.25;;;21.20;42.80;;;;;;5030527;28;20029;-55
2020/12/09 08:57:29;;;;;;;4.68;3.03;;;21.20;42.70;;;;;;5029897;28;20042;-43
2020/12/09 08:59:54;;;;;;;6.53;3.13;;;21.20;42.60;;;;;;5030609;28;20079;-43
2020/12/09 09:02:20;;;;;;;5.28;3.35;;;21.20;42.60;;;;;;5028680;28;20037;-43
2020/12/09 09:04:46;;;;;;;11.20;4.10;;;21.10;42.50;;;;;;5029426;28;20445;-43
2020/12/09 09:07:11;;;;;;;5.15;2.90;;;21.10;42.60;;;;;;5027568;28;20117;-46
2020/12/09 09:09:37;;;;;;;8.73;2.90;;;21.10;42.50;;;;;;5027165;28;20041;-48
2020/12/09 09:12:03;;;;;;;5.40;3.00;;;21.10;42.60;;;;;;5029679;28;20064;-48
2020/12/09 09:14:31;;;;;;;6.10;2.90;;;21.00;42.50;;;;;;5028270;28;20055;-43
2020/12/09 09:16:58;;;;;;;4.88;2.70;;;21.00;42.50;;;;;;5028644;28;20025;-44
2020/12/09 09:19:23;;;;;;;6.05;3.30;;;21.00;42.50;;;;;;5028810;28;20032;-61
2020/12/09 09:21:49;;;;;;;4.93;2.90;;;21.00;42.50;;;;;;5028083;28;20029;-46
2020/12/09 09:24:15;;;;;;;5.65;2.95;;;21.00;42.50;;;;;;5028109;28;20394;-43
2020/12/09 09:26:41;;;;;;;5.78;3.88;;;21.00;42.50;;;;;;5025304;28;20483;-47
2020/12/09 09:29:06;;;;;;;4.80;3.38;;;21.00;42.50;;;;;;5028869;28;20108;-43
2020/12/09 09:31:33;;;;;;;4.15;2.97;;;21.00;42.50;;;;;;5025861;28;20025;-44
2020/12/09 09:33:58;;;;;;;4.53;2.80;;;21.00;42.50;;;;;;5027728;28;20033;-43
2020/12/09 09:36:29;;;;;;;4.50;2.95;;;20.90;42.50;;;;;;5028463;28;20076;-60
2020/12/09 09:38:54;;;;;;;3.75;2.88;;;20.90;42.40;;;;;;5026438;28;20047;-43
2020/12/09 09:41:20;;;;;;;4.35;3.38;;;20.90;42.50;;;;;;5027841;28;20025;-43
2020/12/09 09:43:46;;;;;;;5.78;2.97;;;21.00;42.50;;;;;;5020441;28;20021;-43
2020/12/09 09:46:12;;;;;;;4.25;3.17;;;20.90;42.50;;;;;;5028206;28;20033;-43
2020/12/09 09:48:38;;;;;;;3.35;2.75;;;20.90;42.50;;;;;;5026236;28;20115;-52
2020/12/09 09:51:04;;;;;;;5.75;3.33;;;20.90;42.40;;;;;;5029485;28;20033;-45
2020/12/09 09:53:29;;;;;;;4.35;2.75;;;20.90;42.40;;;;;;5027627;28;20071;-58
2020/12/09 09:55:55;;;;;;;7.43;3.20;;;20.90;42.40;;;;;;5027576;28;20037;-43
2020/12/09 09:58:21;;;;;;;4.78;3.40;;;20.80;42.30;;;;;;5027695;28;20029;-44
2020/12/09 10:00:46;;;;;;;3.65;2.95;;;20.80;42.40;;;;;;5025600;28;20013;-43
2020/12/09 10:03:12;;;;;;;3.95;3.10;;;20.80;42.40;;;;;;5027691;28;20026;-43
2020/12/09 10:05:37;;;;;;;4.65;3.28;;;20.80;42.40;;;;;;5027130;28;20026;-46
2020/12/09 10:08:03;;;;;;;3.97;3.05;;;20.80;42.30;;;;;;5027211;28;20131;-52
2020/12/09 10:10:29;;;;;;;4.88;3.00;;;20.80;42.30;;;;;;5026889;28;20033;-62
2020/12/09 10:12:54;;;;;;;4.43;3.00;;;20.80;42.40;;;;;;5026547;28;20022;-47
2020/12/09 10:15:20;;;;;;;5.30;3.08;;;20.80;42.30;;;;;;5027039;28;20490;-55
2020/12/09 10:17:46;;;;;;;4.05;2.72;;;20.80;42.30;;;;;;5025949;28;20683;-44
2020/12/09 10:20:12;;;;;;;3.97;3.17;;;20.80;42.30;;;;;;5027693;28;20021;-44
2020/12/09 10:22:37;;;;;;;4.25;3.25;;;20.80;43.00;;;;;;5025844;28;20017;-48
2020/12/09 10:25:03;;;;;;;5.05;3.30;;;20.70;42.20;;;;;;5027468;28;20049;-45
2020/12/09 10:27:29;;;;;;;4.18;3.28;;;20.80;42.30;;;;;;5025423;28;20033;-63
2020/12/09 10:29:55;;;;;;;4.75;2.78;;;20.70;42.20;;;;;;5029692;28;20025;-43
2020/12/09 10:32:21;;;;;;;3.67;3.10;;;20.70;42.20;;;;;;5030057;28;20475;-43
2020/12/09 10:34:49;;;;;;;4.88;2.83;;;20.70;42.20;;;;;;5030297;28;20553;-45
2020/12/09 10:37:15;;;;;;;3.28;2.80;;;20.70;42.20;;;;;;5030966;28;20021;-44
2020/12/09 10:39:40;;;;;;;3.45;2.88;;;20.70;42.20;;;;;;5030681;28;20489;-46
2020/12/09 10:42:06;;;;;;;4.50;3.13;;;20.70;42.20;;;;;;5031271;28;20033;-43
2020/12/09 10:44:32;;;;;;;3.53;2.95;;;20.70;42.20;;;;;;5030205;28;20108;-49
2020/12/09 10:46:58;;;;;;;3.38;2.80;;;20.70;42.20;;;;;;5029698;28;20045;-44
2020/12/09 10:49:31;;;;;;;5.50;2.88;;;20.70;42.20;;;;;;5030888;28;20471;-44
2020/12/09 10:51:57;;;;;;;4.25;3.20;;;20.70;42.20;;;;;;5031472;28;20052;-44
2020/12/09 10:54:22;;;;;;;3.78;2.88;;;20.70;42.20;;;;;;5030672;28;20462;-43
2020/12/09 10:56:48;;;;;;;3.33;2.67;;;20.70;42.20;;;;;;5029960;28;20059;-44
2020/12/09 10:59:15;;;;;;;2.95;2.55;;;20.70;42.10;;;;;;5031134;28;20059;-43
2020/12/09 11:01:42;;;;;;;5.18;3.35;;;20.70;42.20;;;;;;5029283;28;20033;-44
2020/12/09 11:04:08;;;;;;;2.92;2.50;;;20.70;42.10;;;;;;5031453;28;20026;-43
2020/12/09 11:06:35;;;;;;;3.42;2.53;;;20.70;42.10;;;;;;5028916;28;20045;-46
2020/12/09 11:09:04;;;;;;;4.28;2.88;;;20.70;42.10;;;;;;5030659;28;20045;-43
2020/12/09 11:11:30;;;;;;;4.50;3.00;;;20.70;42.10;;;;;;5030365;28;20017;-61
2020/12/09 11:13:56;;;;;;;3.30;2.90;;;20.70;42.20;;;;;;5030676;28;20075;-43
2020/12/09 11:16:22;;;;;;;3.35;2.90;;;20.70;42.10;;;;;;5046440;28;20525;-44
2020/12/09 11:18:49;;;;;;;3.13;2.58;;;20.70;42.10;;;;;;5031371;28;20104;-45
2020/12/09 11:21:20;;;;;;;3.47;2.53;;;20.70;42.10;;;;;;5034531;28;20037;-43
2020/12/09 11:23:47;;;;;;;4.07;2.85;;;20.70;42.10;;;;;;5032965;28;20092;-43
2020/12/09 11:26:13;;;;;;;3.67;3.05;;;20.60;42.00;;;;;;5034566;28;20136;-44
2020/12/09 11:28:39;;;;;;;4.13;3.17;;;20.70;42.10;;;;;;5033670;28;20045;-45
2020/12/09 11:31:05;;;;;;;3.55;2.60;;;20.60;42.00;;;;;;5034282;28;20025;-44
2020/12/09 11:33:30;;;;;;;4.22;3.25;;;20.70;42.00;;;;;;5031324;28;20034;-60
2020/12/09 11:35:58;;;;;;;4.25;3.35;;;20.60;42.00;;;;;;5033723;28;20026;-43
2020/12/09 11:38:24;;;;;;;3.75;2.88;;;20.70;42.00;;;;;;5034914;28;20036;-43
2020/12/09 11:40:50;;;;;;;4.22;2.95;;;20.70;42.00;;;;;;5033017;28;20500;-44
2020/12/09 11:43:16;;;;;;;3.80;3.05;;;20.70;42.00;;;;;;5033984;28;20104;-52
2020/12/09 11:45:41;;;;;;;3.53;3.08;;;20.70;42.00;;;;;;5033481;28;20038;-46
2020/12/09 11:48:07;;;;;;;3.95;3.22;;;20.70;42.10;;;;;;5034424;28;20076;-44
2020/12/09 11:50:33;;;;;;;3.72;3.08;;;20.70;42.20;;;;;;5029957;28;20022;-60
2020/12/09 11:52:59;;;;;;;3.53;2.75;;;20.70;42.60;;;;;;5034298;28;20048;-40
2020/12/09 11:55:24;;;;;;;5.65;3.00;;;20.70;42.40;;;;;;5034308;28;20108;-42
2020/12/09 11:57:50;;;;;;;4.68;3.70;;;20.80;42.60;;;;;;5033389;28;20044;-39
2020/12/09 12:00:17;;;;;;;3.92;3.42;;;20.70;42.50;;;;;;5034252;28;20060;-40
2020/12/09 12:02:42;;;;;;;5.13;4.35;;;20.70;42.40;;;;;;5033164;28;20037;-56
2020/12/09 12:05:09;;;;;;;6.38;4.35;;;20.70;42.40;;;;;;5033932;28;20183;-40
2020/12/09 12:07:37;;;;;;;6.88;4.90;;;20.60;42.10;;;;;;5033223;28;20368;-40
2020/12/09 12:10:04;;;;;;;12.20;5.47;;;20.60;42.00;;;;;;5031819;28;20036;-40
2020/12/09 12:12:30;;;;;;;8.63;5.25;;;20.50;42.00;;;;;;5034300;28;20029;-40
2020/12/09 12:14:56;;;;;;;7.60;4.82;;;20.50;42.00;;;;;;5033392;28;20017;-43
2020/12/09 12:17:21;;;;;;;12.63;5.72;;;20.50;42.00;;;;;;5028790;28;20040;-41
2020/12/09 12:19:47;;;;;;;8.13;4.90;;;20.60;42.00;;;;;;5032595;28;20037;-40
2020/12/09 12:22:13;;;;;;;7.82;5.18;;;20.60;42.10;;;;;;5032119;28;20030;-47
2020/12/09 12:24:39;;;;;;;9.10;5.07;;;20.60;42.00;;;;;;5032343;28;20049;-44
2020/12/09 12:27:04;;;;;;;6.65;4.30;;;20.60;42.10;;;;;;5031598;28;20059;-40
2020/12/09 12:29:30;;;;;;;7.20;4.35;;;20.60;42.30;;;;;;5032554;28;20072;-40
2020/12/09 12:31:58;;;;;;;9.05;4.75;;;20.70;42.30;;;;;;5032049;28;20026;-40
2020/12/09 12:34:23;;;;;;;6.85;4.55;;;20.70;42.30;;;;;;5032666;28;20065;-40
2020/12/09 12:36:49;;;;;;;6.70;4.63;;;20.60;42.30;;;;;;5032264;28;20060;-43
2020/12/09 12:39:15;;;;;;;7.30;4.10;;;20.70;42.40;;;;;;5033172;28;20029;-41
2020/12/09 12:41:44;;;;;;;7.53;4.18;;;20.70;42.30;;;;;;5031716;28;20446;-41
2020/12/09 12:44:11;;;;;;;7.70;4.00;;;20.70;42.40;;;;;;5032439;28;20029;-40
2020/12/09 12:46:37;;;;;;;7.03;4.57;;;20.70;42.40;;;;;;5031428;28;20056;-46
2020/12/09 12:49:03;;;;;;;7.40;4.97;;;20.70;42.40;;;;;;5032739;28;20069;-58
2020/12/09 12:51:28;;;;;;;7.13;4.05;;;20.70;42.40;;;;;;5033080;28;20033;-40